sensor_id;sensor_type;location;lat;lon;timestamp;P1;durP1;ratioP1;P2;durP2;ratioP2
48951;SDS011;34758;42.148;24.744;2024-02-21T00:00:02;38.67;;;22.95;;
48951;SDS011;34758;42.148;24.744;2024-02-21T00:02:30;37.63;;;23.88;;
48951;SDS011;34758;42.148;24.744;2024-02-21T00:04:58;31.02;;;22.17;;
48951;SDS011;34758;42.148;24.744;2024-02-21T00:07:25;31.60;;;21.88;;
48951;SDS011;34758;42.148;24.744;2024-02-21T00:09:53;33.25;;;22.77;;
48951;SDS011;34758;42.148;24.744;2024-02-21T00:12:22;33.72;;;22.50;;
48951;SDS011;34758;42.148;24.744;2024-02-21T00:14:49;34.55;;;21.92;;
48951;SDS011;34758;42.148;24.744;2024-02-21T00:17:18;32.10;;;22.52;;
48951;SDS011;34758;42.148;24.744;2024-02-21T00:19:45;34.60;;;22.40;;
48951;SDS011;34758;42.148;24.744;2024-02-21T00:22:11;33.72;;;23.77;;
48951;SDS011;34758;42.148;24.744;2024-02-21T00:24:39;33.00;;;22.77;;
48951;SDS011;34758;42.148;24.744;2024-02-21T00:27:06;34.58;;;24.23;;
48951;SDS011;34758;42.148;24.744;2024-02-21T00:29:35;37.65;;;25.10;;
48951;SDS011;34758;42.148;24.744;2024-02-21T00:32:03;36.97;;;24.23;;
48951;SDS011;34758;42.148;24.744;2024-02-21T00:34:30;38.22;;;25.13;;
48951;SDS011;34758;42.148;24.744;2024-02-21T00:36:57;36.30;;;24.00;;
48951;SDS011;34758;42.148;24.744;2024-02-21T00:39:24;39.28;;;24.55;;
48951;SDS011;34758;42.148;24.744;2024-02-21T00:41:51;43.50;;;26.73;;
48951;SDS011;34758;42.148;24.744;2024-02-21T00:44:18;36.15;;;25.05;;
48951;SDS011;34758;42.148;24.744;2024-02-21T00:46:47;38.08;;;25.83;;
48951;SDS011;34758;42.148;24.744;2024-02-21T00:49:14;37.28;;;26.55;;
48951;SDS011;34758;42.148;24.744;2024-02-21T00:51:41;39.45;;;27.17;;
48951;SDS011;34758;42.148;24.744;2024-02-21T00:54:09;42.85;;;28.63;;
48951;SDS011;34758;42.148;24.744;2024-02-21T00:56:36;39.47;;;28.30;;
48951;SDS011;34758;42.148;24.744;2024-02-21T00:59:02;40.10;;;28.20;;
48951;SDS011;34758;42.148;24.744;2024-02-21T01:01:31;41.75;;;29.52;;
48951;SDS011;34758;42.148;24.744;2024-02-21T01:04:00;40.08;;;28.50;;
48951;SDS011;34758;42.148;24.744;2024-02-21T01:06:27;42.22;;;28.60;;
48951;SDS011;34758;42.148;24.744;2024-02-21T01:08:54;41.30;;;27.67;;
48951;SDS011;34758;42.148;24.744;2024-02-21T01:11:21;40.58;;;28.75;;
48951;SDS011;34758;42.148;24.744;2024-02-21T01:13:51;41.67;;;29.88;;
48951;SDS011;34758;42.148;24.744;2024-02-21T01:16:19;43.38;;;30.63;;
48951;SDS011;34758;42.148;24.744;2024-02-21T01:18:46;44.13;;;30.70;;
48951;SDS011;34758;42.148;24.744;2024-02-21T01:21:15;44.17;;;30.08;;
48951;SDS011;34758;42.148;24.744;2024-02-21T01:23:41;45.20;;;31.10;;
48951;SDS011;34758;42.148;24.744;2024-02-21T01:26:09;45.97;;;29.25;;
48951;SDS011;34758;42.148;24.744;2024-02-21T01:28:41;42.42;;;28.73;;
48951;SDS011;34758;42.148;24.744;2024-02-21T01:31:09;39.30;;;27.15;;
48951;SDS011;34758;42.148;24.744;2024-02-21T01:33:38;39.03;;;25.83;;
48951;SDS011;34758;42.148;24.744;2024-02-21T01:36:06;31.13;;;22.85;;
48951;SDS011;34758;42.148;24.744;2024-02-21T01:38:36;35.58;;;24.13;;
48951;SDS011;34758;42.148;24.744;2024-02-21T01:41:04;33.70;;;23.42;;
48951;SDS011;34758;42.148;24.744;2024-02-21T01:43:31;30.88;;;22.52;;
48951;SDS011;34758;42.148;24.744;2024-02-21T01:45:58;32.28;;;23.08;;
48951;SDS011;34758;42.148;24.744;2024-02-21T01:48:26;32.58;;;23.27;;
48951;SDS011;34758;42.148;24.744;2024-02-21T01:50:54;34.05;;;22.45;;
48951;SDS011;34758;42.148;24.744;2024-02-21T01:53:30;34.58;;;23.90;;
48951;SDS011;34758;42.148;24.744;2024-02-21T01:55:59;37.15;;;24.27;;
48951;SDS011;34758;42.148;24.744;2024-02-21T01:58:26;33.60;;;23.75;;
48951;SDS011;34758;42.148;24.744;2024-02-21T02:00:54;30.55;;;21.75;;
48951;SDS011;34758;42.148;24.744;2024-02-21T02:03:24;32.20;;;22.13;;
48951;SDS011;34758;42.148;24.744;2024-02-21T02:08:24;33.45;;;22.52;;
48951;SDS011;34758;42.148;24.744;2024-02-21T02:10:51;31.10;;;22.83;;
48951;SDS011;34758;42.148;24.744;2024-02-21T02:13:19;30.58;;;23.48;;
48951;SDS011;34758;42.148;24.744;2024-02-21T02:15:47;31.60;;;23.00;;
48951;SDS011;34758;42.148;24.744;2024-02-21T02:18:16;32.90;;;22.58;;
48951;SDS011;34758;42.148;24.744;2024-02-21T02:20:44;31.27;;;23.52;;
48951;SDS011;34758;42.148;24.744;2024-02-21T02:23:18;30.83;;;22.83;;
48951;SDS011;34758;42.148;24.744;2024-02-21T02:25:57;32.88;;;23.35;;
48951;SDS011;34758;42.148;24.744;2024-02-21T02:28:26;31.98;;;23.02;;
48951;SDS011;34758;42.148;24.744;2024-02-21T02:30:54;31.85;;;22.85;;
48951;SDS011;34758;42.148;24.744;2024-02-21T02:33:22;35.42;;;23.58;;
48951;SDS011;34758;42.148;24.744;2024-02-21T02:35:50;35.35;;;23.35;;
48951;SDS011;34758;42.148;24.744;2024-02-21T02:38:18;41.35;;;25.17;;
48951;SDS011;34758;42.148;24.744;2024-02-21T02:40:45;34.35;;;24.48;;
48951;SDS011;34758;42.148;24.744;2024-02-21T02:43:12;32.60;;;23.60;;
48951;SDS011;34758;42.148;24.744;2024-02-21T02:45:39;34.15;;;24.27;;
48951;SDS011;34758;42.148;24.744;2024-02-21T02:48:07;35.08;;;25.40;;
48951;SDS011;34758;42.148;24.744;2024-02-21T02:50:35;37.47;;;26.65;;
48951;SDS011;34758;42.148;24.744;2024-02-21T02:53:02;33.80;;;24.83;;
48951;SDS011;34758;42.148;24.744;2024-02-21T02:55:31;35.22;;;24.23;;
48951;SDS011;34758;42.148;24.744;2024-02-21T02:58:00;36.17;;;26.05;;
48951;SDS011;34758;42.148;24.744;2024-02-21T03:00:29;38.63;;;27.30;;
48951;SDS011;34758;42.148;24.744;2024-02-21T03:02:56;40.75;;;26.55;;
48951;SDS011;34758;42.148;24.744;2024-02-21T03:05:26;38.95;;;26.13;;
48951;SDS011;34758;42.148;24.744;2024-02-21T03:07:52;38.78;;;26.17;;
48951;SDS011;34758;42.148;24.744;2024-02-21T03:10:20;35.35;;;25.90;;
48951;SDS011;34758;42.148;24.744;2024-02-21T03:12:51;34.35;;;26.05;;
48951;SDS011;34758;42.148;24.744;2024-02-21T03:15:19;36.60;;;26.52;;
48951;SDS011;34758;42.148;24.744;2024-02-21T03:17:47;37.95;;;26.85;;
48951;SDS011;34758;42.148;24.744;2024-02-21T03:20:13;35.30;;;25.35;;
48951;SDS011;34758;42.148;24.744;2024-02-21T03:22:41;32.80;;;25.10;;
48951;SDS011;34758;42.148;24.744;2024-02-21T03:25:08;33.38;;;24.08;;
48951;SDS011;34758;42.148;24.744;2024-02-21T03:27:37;33.80;;;24.55;;
48951;SDS011;34758;42.148;24.744;2024-02-21T03:30:06;34.35;;;25.25;;
48951;SDS011;34758;42.148;24.744;2024-02-21T03:32:34;34.08;;;24.27;;
48951;SDS011;34758;42.148;24.744;2024-02-21T03:35:01;33.90;;;23.25;;
48951;SDS011;34758;42.148;24.744;2024-02-21T03:37:29;29.73;;;21.70;;
48951;SDS011;34758;42.148;24.744;2024-02-21T03:39:56;31.33;;;23.88;;
48951;SDS011;34758;42.148;24.744;2024-02-21T03:42:23;27.58;;;19.42;;
48951;SDS011;34758;42.148;24.744;2024-02-21T03:44:54;24.63;;;18.58;;
48951;SDS011;34758;42.148;24.744;2024-02-21T03:47:25;23.67;;;18.38;;
48951;SDS011;34758;42.148;24.744;2024-02-21T03:49:54;24.75;;;18.38;;
48951;SDS011;34758;42.148;24.744;2024-02-21T03:52:23;27.60;;;19.27;;
48951;SDS011;34758;42.148;24.744;2024-02-21T03:54:50;24.35;;;17.98;;
48951;SDS011;34758;42.148;24.744;2024-02-21T03:57:21;21.17;;;16.80;;
48951;SDS011;34758;42.148;24.744;2024-02-21T03:59:50;23.25;;;17.15;;
48951;SDS011;34758;42.148;24.744;2024-02-21T04:02:17;25.02;;;17.77;;
48951;SDS011;34758;42.148;24.744;2024-02-21T04:04:46;22.58;;;17.73;;
48951;SDS011;34758;42.148;24.744;2024-02-21T04:07:13;22.02;;;17.70;;
48951;SDS011;34758;42.148;24.744;2024-02-21T04:09:41;24.80;;;17.60;;
48951;SDS011;34758;42.148;24.744;2024-02-21T04:12:09;21.48;;;16.58;;
48951;SDS011;34758;42.148;24.744;2024-02-21T04:14:38;22.45;;;15.68;;
48951;SDS011;34758;42.148;24.744;2024-02-21T04:17:06;21.52;;;15.10;;
48951;SDS011;34758;42.148;24.744;2024-02-21T04:19:33;22.30;;;17.17;;
48951;SDS011;34758;42.148;24.744;2024-02-21T04:22:01;24.13;;;17.83;;
48951;SDS011;34758;42.148;24.744;2024-02-21T04:24:28;22.75;;;16.58;;
48951;SDS011;34758;42.148;24.744;2024-02-21T04:26:56;22.45;;;16.75;;
48951;SDS011;34758;42.148;24.744;2024-02-21T04:29:23;32.38;;;21.92;;
48951;SDS011;34758;42.148;24.744;2024-02-21T04:31:51;38.92;;;26.92;;
48951;SDS011;34758;42.148;24.744;2024-02-21T04:34:19;44.53;;;29.67;;
48951;SDS011;34758;42.148;24.744;2024-02-21T04:36:47;44.92;;;31.70;;
48951;SDS011;34758;42.148;24.744;2024-02-21T04:39:19;43.53;;;31.23;;
48951;SDS011;34758;42.148;24.744;2024-02-21T04:41:46;41.40;;;31.13;;
48951;SDS011;34758;42.148;24.744;2024-02-21T04:44:12;45.00;;;30.25;;
48951;SDS011;34758;42.148;24.744;2024-02-21T04:46:41;44.53;;;31.13;;
48951;SDS011;34758;42.148;24.744;2024-02-21T04:49:09;40.10;;;28.60;;
48951;SDS011;34758;42.148;24.744;2024-02-21T04:51:36;45.83;;;30.52;;
48951;SDS011;34758;42.148;24.744;2024-02-21T04:54:03;42.95;;;30.38;;
48951;SDS011;34758;42.148;24.744;2024-02-21T04:56:32;38.42;;;28.67;;
48951;SDS011;34758;42.148;24.744;2024-02-21T04:59:00;45.83;;;29.38;;
48951;SDS011;34758;42.148;24.744;2024-02-21T05:01:29;41.83;;;28.20;;
48951;SDS011;34758;42.148;24.744;2024-02-21T05:03:56;40.80;;;30.17;;
48951;SDS011;34758;42.148;24.744;2024-02-21T05:06:23;43.03;;;30.02;;
48951;SDS011;34758;42.148;24.744;2024-02-21T05:08:53;44.30;;;31.08;;
48951;SDS011;34758;42.148;24.744;2024-02-21T05:11:23;46.40;;;30.88;;
48951;SDS011;34758;42.148;24.744;2024-02-21T05:13:52;46.90;;;31.95;;
48951;SDS011;34758;42.148;24.744;2024-02-21T05:16:19;47.67;;;31.33;;
48951;SDS011;34758;42.148;24.744;2024-02-21T05:18:46;50.85;;;32.25;;
48951;SDS011;34758;42.148;24.744;2024-02-21T05:21:15;50.75;;;33.15;;
48951;SDS011;34758;42.148;24.744;2024-02-21T05:23:42;45.45;;;31.40;;
48951;SDS011;34758;42.148;24.744;2024-02-21T05:26:09;44.60;;;31.80;;
48951;SDS011;34758;42.148;24.744;2024-02-21T05:28:36;47.65;;;33.55;;
48951;SDS011;34758;42.148;24.744;2024-02-21T05:31:05;47.58;;;31.65;;
48951;SDS011;34758;42.148;24.744;2024-02-21T05:33:35;47.38;;;31.80;;
48951;SDS011;34758;42.148;24.744;2024-02-21T05:36:02;43.80;;;30.20;;
48951;SDS011;34758;42.148;24.744;2024-02-21T05:38:31;44.80;;;30.48;;
48951;SDS011;34758;42.148;24.744;2024-02-21T05:40:58;45.70;;;30.30;;
48951;SDS011;34758;42.148;24.744;2024-02-21T05:43:28;43.38;;;29.88;;
48951;SDS011;34758;42.148;24.744;2024-02-21T05:45:55;45.40;;;30.85;;
48951;SDS011;34758;42.148;24.744;2024-02-21T05:48:24;44.05;;;29.92;;
48951;SDS011;34758;42.148;24.744;2024-02-21T05:50:53;46.92;;;30.75;;
48951;SDS011;34758;42.148;24.744;2024-02-21T05:53:20;41.80;;;29.88;;
48951;SDS011;34758;42.148;24.744;2024-02-21T05:55:47;41.05;;;30.15;;
48951;SDS011;34758;42.148;24.744;2024-02-21T05:58:14;44.75;;;30.92;;
48951;SDS011;34758;42.148;24.744;2024-02-21T06:00:41;46.53;;;30.67;;
48951;SDS011;34758;42.148;24.744;2024-02-21T06:03:08;42.00;;;30.58;;
48951;SDS011;34758;42.148;24.744;2024-02-21T06:05:38;44.35;;;30.85;;
48951;SDS011;34758;42.148;24.744;2024-02-21T06:08:05;46.72;;;31.50;;
48951;SDS011;34758;42.148;24.744;2024-02-21T06:10:34;42.42;;;29.92;;
48951;SDS011;34758;42.148;24.744;2024-02-21T06:13:01;42.28;;;29.60;;
48951;SDS011;34758;42.148;24.744;2024-02-21T06:15:29;40.28;;;29.40;;
48951;SDS011;34758;42.148;24.744;2024-02-21T06:17:58;38.95;;;28.80;;
48951;SDS011;34758;42.148;24.744;2024-02-21T06:20:26;40.80;;;30.20;;
48951;SDS011;34758;42.148;24.744;2024-02-21T06:22:55;41.40;;;29.40;;
48951;SDS011;34758;42.148;24.744;2024-02-21T06:25:23;45.42;;;30.55;;
48951;SDS011;34758;42.148;24.744;2024-02-21T06:27:52;39.85;;;29.52;;
48951;SDS011;34758;42.148;24.744;2024-02-21T06:30:19;41.83;;;29.70;;
48951;SDS011;34758;42.148;24.744;2024-02-21T06:32:48;40.72;;;29.55;;
48951;SDS011;34758;42.148;24.744;2024-02-21T06:35:18;44.28;;;28.40;;
48951;SDS011;34758;42.148;24.744;2024-02-21T06:37:46;45.58;;;29.17;;
48951;SDS011;34758;42.148;24.744;2024-02-21T06:40:18;39.75;;;28.58;;
48951;SDS011;34758;42.148;24.744;2024-02-21T06:42:47;39.53;;;28.25;;
48951;SDS011;34758;42.148;24.744;2024-02-21T06:45:14;40.72;;;29.42;;
48951;SDS011;34758;42.148;24.744;2024-02-21T06:47:43;39.25;;;28.67;;
48951;SDS011;34758;42.148;24.744;2024-02-21T06:50:10;41.78;;;29.23;;
48951;SDS011;34758;42.148;24.744;2024-02-21T06:52:37;38.47;;;27.58;;
48951;SDS011;34758;42.148;24.744;2024-02-21T06:55:04;95.30;;;73.38;;
48951;SDS011;34758;42.148;24.744;2024-02-21T06:57:33;45.20;;;31.88;;
48951;SDS011;34758;42.148;24.744;2024-02-21T07:00:01;34.05;;;24.98;;
48951;SDS011;34758;42.148;24.744;2024-02-21T07:02:33;30.58;;;23.48;;
48951;SDS011;34758;42.148;24.744;2024-02-21T07:05:03;39.33;;;26.60;;
48951;SDS011;34758;42.148;24.744;2024-02-21T07:07:30;32.60;;;23.25;;
48951;SDS011;34758;42.148;24.744;2024-02-21T07:09:58;30.13;;;20.95;;
48951;SDS011;34758;42.148;24.744;2024-02-21T07:12:26;26.58;;;19.42;;
48951;SDS011;34758;42.148;24.744;2024-02-21T07:14:56;28.00;;;20.20;;
48951;SDS011;34758;42.148;24.744;2024-02-21T07:17:23;26.02;;;20.17;;
48951;SDS011;34758;42.148;24.744;2024-02-21T07:19:51;23.65;;;18.02;;
48951;SDS011;34758;42.148;24.744;2024-02-21T07:22:22;23.50;;;17.58;;
48951;SDS011;34758;42.148;24.744;2024-02-21T07:24:49;22.23;;;17.20;;
48951;SDS011;34758;42.148;24.744;2024-02-21T07:27:16;23.42;;;17.85;;
48951;SDS011;34758;42.148;24.744;2024-02-21T07:29:45;23.27;;;15.90;;
48951;SDS011;34758;42.148;24.744;2024-02-21T07:32:16;23.17;;;17.10;;
48951;SDS011;34758;42.148;24.744;2024-02-21T07:34:45;28.48;;;18.45;;
48951;SDS011;34758;42.148;24.744;2024-02-21T07:37:13;25.10;;;17.85;;
48951;SDS011;34758;42.148;24.744;2024-02-21T07:39:40;25.20;;;18.98;;
48951;SDS011;34758;42.148;24.744;2024-02-21T07:42:07;26.80;;;20.52;;
48951;SDS011;34758;42.148;24.744;2024-02-21T07:44:35;23.52;;;17.67;;
48951;SDS011;34758;42.148;24.744;2024-02-21T07:47:03;23.95;;;16.90;;
48951;SDS011;34758;42.148;24.744;2024-02-21T07:49:40;27.77;;;17.90;;
48951;SDS011;34758;42.148;24.744;2024-02-21T07:52:09;23.38;;;18.50;;
48951;SDS011;34758;42.148;24.744;2024-02-21T07:54:37;23.25;;;17.08;;
48951;SDS011;34758;42.148;24.744;2024-02-21T07:57:04;21.85;;;16.95;;
48951;SDS011;34758;42.148;24.744;2024-02-21T07:59:32;21.20;;;17.05;;
48951;SDS011;34758;42.148;24.744;2024-02-21T08:01:59;30.02;;;16.27;;
48951;SDS011;34758;42.148;24.744;2024-02-21T08:04:27;20.55;;;15.23;;
48951;SDS011;34758;42.148;24.744;2024-02-21T08:06:55;17.88;;;13.77;;
48951;SDS011;34758;42.148;24.744;2024-02-21T08:09:26;17.73;;;13.55;;
48951;SDS011;34758;42.148;24.744;2024-02-21T08:11:54;17.63;;;14.18;;
48951;SDS011;34758;42.148;24.744;2024-02-21T08:14:24;16.52;;;13.27;;
48951;SDS011;34758;42.148;24.744;2024-02-21T08:16:51;19.58;;;14.48;;
48951;SDS011;34758;42.148;24.744;2024-02-21T08:19:21;19.58;;;14.18;;
48951;SDS011;34758;42.148;24.744;2024-02-21T08:21:49;19.17;;;13.85;;
48951;SDS011;34758;42.148;24.744;2024-02-21T08:24:18;17.65;;;12.43;;
48951;SDS011;34758;42.148;24.744;2024-02-21T08:26:49;15.23;;;11.80;;
48951;SDS011;34758;42.148;24.744;2024-02-21T08:29:16;16.00;;;11.48;;
48951;SDS011;34758;42.148;24.744;2024-02-21T08:31:44;13.35;;;10.18;;
48951;SDS011;34758;42.148;24.744;2024-02-21T08:34:11;12.85;;;10.25;;
48951;SDS011;34758;42.148;24.744;2024-02-21T08:36:40;12.82;;;9.48;;
48951;SDS011;34758;42.148;24.744;2024-02-21T08:39:07;12.65;;;9.25;;
48951;SDS011;34758;42.148;24.744;2024-02-21T08:41:36;10.48;;;8.27;;
48951;SDS011;34758;42.148;24.744;2024-02-21T08:44:04;14.07;;;9.50;;
48951;SDS011;34758;42.148;24.744;2024-02-21T08:46:31;11.65;;;9.45;;
48951;SDS011;34758;42.148;24.744;2024-02-21T08:48:58;13.40;;;9.07;;
48951;SDS011;34758;42.148;24.744;2024-02-21T08:51:26;12.90;;;9.80;;
48951;SDS011;34758;42.148;24.744;2024-02-21T08:53:53;11.70;;;9.20;;
48951;SDS011;34758;42.148;24.744;2024-02-21T08:56:21;10.90;;;9.20;;
48951;SDS011;34758;42.148;24.744;2024-02-21T08:58:49;17.83;;;12.93;;
48951;SDS011;34758;42.148;24.744;2024-02-21T09:01:16;13.57;;;9.82;;
48951;SDS011;34758;42.148;24.744;2024-02-21T09:03:44;11.55;;;9.63;;
48951;SDS011;34758;42.148;24.744;2024-02-21T09:06:11;12.27;;;9.88;;
48951;SDS011;34758;42.148;24.744;2024-02-21T09:08:39;9.63;;;8.48;;
48951;SDS011;34758;42.148;24.744;2024-02-21T09:11:08;11.60;;;8.60;;
48951;SDS011;34758;42.148;24.744;2024-02-21T09:13:41;12.73;;;9.27;;
48951;SDS011;34758;42.148;24.744;2024-02-21T09:16:11;12.82;;;8.77;;
48951;SDS011;34758;42.148;24.744;2024-02-21T09:18:41;11.73;;;9.13;;
48951;SDS011;34758;42.148;24.744;2024-02-21T09:21:09;11.05;;;8.10;;
48951;SDS011;34758;42.148;24.744;2024-02-21T09:23:39;11.43;;;8.40;;
48951;SDS011;34758;42.148;24.744;2024-02-21T09:26:07;11.23;;;8.70;;
48951;SDS011;34758;42.148;24.744;2024-02-21T09:28:39;13.32;;;8.57;;
48951;SDS011;34758;42.148;24.744;2024-02-21T09:31:07;9.10;;;7.22;;
48951;SDS011;34758;42.148;24.744;2024-02-21T09:33:37;10.65;;;8.48;;
48951;SDS011;34758;42.148;24.744;2024-02-21T09:36:07;9.95;;;7.93;;
48951;SDS011;34758;42.148;24.744;2024-02-21T09:38:35;8.25;;;7.10;;
48951;SDS011;34758;42.148;24.744;2024-02-21T09:41:08;10.25;;;7.55;;
48951;SDS011;34758;42.148;24.744;2024-02-21T09:43:42;9.20;;;7.93;;
48951;SDS011;34758;42.148;24.744;2024-02-21T09:46:13;8.57;;;6.93;;
48951;SDS011;34758;42.148;24.744;2024-02-21T09:48:48;9.85;;;7.88;;
48951;SDS011;34758;42.148;24.744;2024-02-21T09:51:23;10.27;;;7.18;;
48951;SDS011;34758;42.148;24.744;2024-02-21T09:53:55;10.40;;;8.15;;
48951;SDS011;34758;42.148;24.744;2024-02-21T09:56:23;9.15;;;7.03;;
48951;SDS011;34758;42.148;24.744;2024-02-21T09:58:57;10.43;;;7.45;;
48951;SDS011;34758;42.148;24.744;2024-02-21T10:01:32;8.20;;;7.35;;
48951;SDS011;34758;42.148;24.744;2024-02-21T10:04:01;10.15;;;7.63;;
48951;SDS011;34758;42.148;24.744;2024-02-21T10:06:30;13.23;;;7.88;;
48951;SDS011;34758;42.148;24.744;2024-02-21T10:08:58;8.90;;;6.93;;
48951;SDS011;34758;42.148;24.744;2024-02-21T10:11:27;10.40;;;6.20;;
48951;SDS011;34758;42.148;24.744;2024-02-21T10:14:02;8.70;;;6.78;;
48951;SDS011;34758;42.148;24.744;2024-02-21T10:16:31;8.75;;;7.35;;
48951;SDS011;34758;42.148;24.744;2024-02-21T10:19:01;10.27;;;7.07;;
48951;SDS011;34758;42.148;24.744;2024-02-21T10:21:29;9.05;;;6.97;;
48951;SDS011;34758;42.148;24.744;2024-02-21T10:23:57;16.95;;;13.18;;
48951;SDS011;34758;42.148;24.744;2024-02-21T10:26:25;9.02;;;7.43;;
48951;SDS011;34758;42.148;24.744;2024-02-21T10:29:02;11.07;;;7.10;;
48951;SDS011;34758;42.148;24.744;2024-02-21T10:31:32;10.23;;;9.23;;
48951;SDS011;34758;42.148;24.744;2024-02-21T10:34:02;8.73;;;7.82;;
48951;SDS011;34758;42.148;24.744;2024-02-21T10:36:32;11.85;;;9.00;;
48951;SDS011;34758;42.148;24.744;2024-02-21T10:39:02;8.67;;;7.13;;
48951;SDS011;34758;42.148;24.744;2024-02-21T10:41:34;8.93;;;6.70;;
48951;SDS011;34758;42.148;24.744;2024-02-21T10:44:03;7.28;;;5.60;;
48951;SDS011;34758;42.148;24.744;2024-02-21T10:46:33;6.07;;;5.47;;
48951;SDS011;34758;42.148;24.744;2024-02-21T10:49:06;7.50;;;6.13;;
48951;SDS011;34758;42.148;24.744;2024-02-21T10:51:41;6.60;;;5.90;;
48951;SDS011;34758;42.148;24.744;2024-02-21T10:54:19;7.85;;;6.63;;
48951;SDS011;34758;42.148;24.744;2024-02-21T10:56:58;6.65;;;5.95;;
48951;SDS011;34758;42.148;24.744;2024-02-21T10:59:33;7.32;;;6.30;;
48951;SDS011;34758;42.148;24.744;2024-02-21T11:02:03;6.70;;;5.95;;
48951;SDS011;34758;42.148;24.744;2024-02-21T11:04:36;8.32;;;7.53;;
48951;SDS011;34758;42.148;24.744;2024-02-21T11:07:06;7.85;;;5.60;;
48951;SDS011;34758;42.148;24.744;2024-02-21T11:09:34;7.22;;;6.07;;
48951;SDS011;34758;42.148;24.744;2024-02-21T11:12:05;6.35;;;5.43;;
48951;SDS011;34758;42.148;24.744;2024-02-21T11:14:34;7.90;;;5.93;;
48951;SDS011;34758;42.148;24.744;2024-02-21T11:17:03;5.55;;;5.03;;
48951;SDS011;34758;42.148;24.744;2024-02-21T11:19:42;5.72;;;5.07;;
48951;SDS011;34758;42.148;24.744;2024-02-21T11:22:14;6.05;;;5.45;;
48951;SDS011;34758;42.148;24.744;2024-02-21T11:24:42;6.03;;;5.43;;
48951;SDS011;34758;42.148;24.744;2024-02-21T11:27:11;7.38;;;5.60;;
48951;SDS011;34758;42.148;24.744;2024-02-21T11:29:42;7.72;;;6.60;;
48951;SDS011;34758;42.148;24.744;2024-02-21T11:34:38;9.30;;;6.18;;
48951;SDS011;34758;42.148;24.744;2024-02-21T11:37:14;6.40;;;5.80;;
48951;SDS011;34758;42.148;24.744;2024-02-21T11:39:42;5.63;;;4.78;;
48951;SDS011;34758;42.148;24.744;2024-02-21T11:42:10;8.70;;;6.13;;
48951;SDS011;34758;42.148;24.744;2024-02-21T11:44:39;6.63;;;5.20;;
48951;SDS011;34758;42.148;24.744;2024-02-21T11:47:08;4.80;;;4.32;;
48951;SDS011;34758;42.148;24.744;2024-02-21T11:49:42;7.00;;;4.43;;
48951;SDS011;34758;42.148;24.744;2024-02-21T11:52:11;4.30;;;3.88;;
48951;SDS011;34758;42.148;24.744;2024-02-21T11:54:44;5.82;;;4.85;;
48951;SDS011;34758;42.148;24.744;2024-02-21T11:57:17;6.20;;;4.60;;
48951;SDS011;34758;42.148;24.744;2024-02-21T11:59:45;5.35;;;4.85;;
48951;SDS011;34758;42.148;24.744;2024-02-21T12:02:12;10.07;;;5.85;;
48951;SDS011;34758;42.148;24.744;2024-02-21T12:04:41;6.40;;;5.35;;
48951;SDS011;34758;42.148;24.744;2024-02-21T12:07:11;5.25;;;4.47;;
48951;SDS011;34758;42.148;24.744;2024-02-21T12:09:44;6.22;;;4.75;;
48951;SDS011;34758;42.148;24.744;2024-02-21T12:12:11;5.80;;;4.22;;
48951;SDS011;34758;42.148;24.744;2024-02-21T12:14:39;7.80;;;4.15;;
48951;SDS011;34758;42.148;24.744;2024-02-21T12:17:09;6.43;;;4.35;;
48951;SDS011;34758;42.148;24.744;2024-02-21T12:19:36;6.05;;;3.92;;
48951;SDS011;34758;42.148;24.744;2024-02-21T12:22:06;6.60;;;5.05;;
48951;SDS011;34758;42.148;24.744;2024-02-21T12:24:35;4.88;;;4.20;;
48951;SDS011;34758;42.148;24.744;2024-02-21T12:27:10;4.85;;;3.78;;
48951;SDS011;34758;42.148;24.744;2024-02-21T12:29:38;3.72;;;3.33;;
48951;SDS011;34758;42.148;24.744;2024-02-21T12:32:05;4.25;;;3.70;;
48951;SDS011;34758;42.148;24.744;2024-02-21T12:34:40;3.97;;;3.58;;
48951;SDS011;34758;42.148;24.744;2024-02-21T12:37:10;3.92;;;3.53;;
48951;SDS011;34758;42.148;24.744;2024-02-21T12:39:39;8.60;;;3.80;;
48951;SDS011;34758;42.148;24.744;2024-02-21T12:42:11;4.80;;;3.60;;
48951;SDS011;34758;42.148;24.744;2024-02-21T12:44:40;4.20;;;3.70;;
48951;SDS011;34758;42.148;24.744;2024-02-21T12:47:07;3.88;;;3.47;;
48951;SDS011;34758;42.148;24.744;2024-02-21T12:49:35;3.70;;;3.38;;
48951;SDS011;34758;42.148;24.744;2024-02-21T12:52:03;3.97;;;3.38;;
48951;SDS011;34758;42.148;24.744;2024-02-21T12:54:31;4.68;;;3.28;;
48951;SDS011;34758;42.148;24.744;2024-02-21T12:57:01;4.22;;;3.40;;
48951;SDS011;34758;42.148;24.744;2024-02-21T12:59:30;3.03;;;2.67;;
48951;SDS011;34758;42.148;24.744;2024-02-21T13:01:57;3.08;;;2.78;;
48951;SDS011;34758;42.148;24.744;2024-02-21T13:04:25;3.63;;;2.65;;
48951;SDS011;34758;42.148;24.744;2024-02-21T13:06:54;3.28;;;2.97;;
48951;SDS011;34758;42.148;24.744;2024-02-21T13:09:23;3.08;;;2.75;;
48951;SDS011;34758;42.148;24.744;2024-02-21T13:11:52;5.07;;;3.38;;
48951;SDS011;34758;42.148;24.744;2024-02-21T13:14:19;4.85;;;2.90;;
48951;SDS011;34758;42.148;24.744;2024-02-21T13:16:49;3.00;;;2.60;;
48951;SDS011;34758;42.148;24.744;2024-02-21T13:19:17;3.60;;;2.35;;
48951;SDS011;34758;42.148;24.744;2024-02-21T13:21:45;3.38;;;3.08;;
48951;SDS011;34758;42.148;24.744;2024-02-21T13:24:13;3.08;;;2.50;;
48951;SDS011;34758;42.148;24.744;2024-02-21T13:26:40;3.33;;;2.92;;
48951;SDS011;34758;42.148;24.744;2024-02-21T13:29:08;3.90;;;3.60;;
48951;SDS011;34758;42.148;24.744;2024-02-21T13:31:39;5.37;;;3.40;;
48951;SDS011;34758;42.148;24.744;2024-02-21T13:34:07;4.20;;;3.58;;
48951;SDS011;34758;42.148;24.744;2024-02-21T13:36:36;3.60;;;3.30;;
48951;SDS011;34758;42.148;24.744;2024-02-21T13:39:06;5.22;;;3.85;;
48951;SDS011;34758;42.148;24.744;2024-02-21T13:41:38;3.72;;;2.95;;
48951;SDS011;34758;42.148;24.744;2024-02-21T13:44:06;4.63;;;3.08;;
48951;SDS011;34758;42.148;24.744;2024-02-21T13:46:34;3.65;;;2.90;;
48951;SDS011;34758;42.148;24.744;2024-02-21T13:49:02;3.00;;;2.28;;
48951;SDS011;34758;42.148;24.744;2024-02-21T13:51:34;5.13;;;2.97;;
48951;SDS011;34758;42.148;24.744;2024-02-21T13:54:01;4.05;;;2.80;;
48951;SDS011;34758;42.148;24.744;2024-02-21T13:56:29;2.65;;;2.30;;
48951;SDS011;34758;42.148;24.744;2024-02-21T13:59:01;3.28;;;2.17;;
48951;SDS011;34758;42.148;24.744;2024-02-21T14:01:30;2.65;;;2.15;;
48951;SDS011;34758;42.148;24.744;2024-02-21T14:03:59;2.15;;;1.80;;
48951;SDS011;34758;42.148;24.744;2024-02-21T14:06:31;2.22;;;2.00;;
48951;SDS011;34758;42.148;24.744;2024-02-21T14:08:59;2.58;;;1.70;;
48951;SDS011;34758;42.148;24.744;2024-02-21T14:11:28;3.50;;;2.13;;
48951;SDS011;34758;42.148;24.744;2024-02-21T14:13:56;2.35;;;1.90;;
48951;SDS011;34758;42.148;24.744;2024-02-21T14:16:25;5.15;;;3.25;;
48951;SDS011;34758;42.148;24.744;2024-02-21T14:18:52;8.90;;;5.65;;
48951;SDS011;34758;42.148;24.744;2024-02-21T14:21:20;10.13;;;6.00;;
48951;SDS011;34758;42.148;24.744;2024-02-21T14:23:47;8.07;;;5.55;;
48951;SDS011;34758;42.148;24.744;2024-02-21T14:26:19;7.50;;;5.50;;
48951;SDS011;34758;42.148;24.744;2024-02-21T14:28:47;6.70;;;5.07;;
48951;SDS011;34758;42.148;24.744;2024-02-21T14:31:14;9.10;;;4.88;;